Hartford, Vermont
Current Conditions -  °F | °C
As of 10:53 PM on Friday 19 Dec 2014 (Local Time) from KLEB Reporting Station
Overcast Overcast  
Wind Chill: 17°   Ceiling: 1600
Heat Index: 24°   Visibility: 10mi
Dew Point: 16°   Wind: 6mph
Humidity: 71%   Direction: 340°NNW
Pressure: 30.17"   Gusts: NA
Location:  43.66°N, 72.34°W
Report Text: KLEB 200353Z AUTO 34005KT 10SM OVC016 M04/M09 A3017 RMK AO2 SLP228 T10441089
Loading
Personal Weather Stations






























Interactive Weather Map New forecast layout! Learn more

10-Day Weather Forecast

Advertisements
Track Severe Weather on mobile